Vienna, Georgia
Current Conditions -  °F | °C
As of 1:15 PM on Tuesday 21 Oct 2014 (Local Time) from KCKF Reporting Station
Clear Clear  
Wind Chill: 76°   Ceiling: Unl
Heat Index: 78°   Visibility: 10mi
Dew Point: 51°   Wind: 9mph
Humidity: 42%   Direction: 340°NNW
Pressure: 30.01"   Gusts: NA
Location:  32.09°N, 83.8°W
Report Text: KCKF 211715Z AUTO 34008KT 320V040 10SM CLR 25/11 A3001 RMK AO2 T02450107
Loading
Personal Weather Stations






























Interactive Weather Map
Tropical Storm Tracking
New forecast layout! Learn more

10-Day Weather Forecast

Advertisements
Track Severe Weather on mobile